Time;durP1;ratioP1;P1;durP2;ratioP2;P2;SDS_P1;SDS_P2;PMS_P1;PMS_P2;Temp;Humidity;BMP_temperature;BMP_pressure;BME280_temperature;BME280_humidity;BME280_pressure;Samples;Min_cycle;Max_cycle;Signal;HPM_P1;HPM_P2
2024/01/09 00:00:38;;;;;;;9.45;4.68;;;;;;;;;;5007016;28;20253;-78
2024/01/09 00:03:04;;;;;;;7.60;3.88;;;;;;;;;;5004802;28;20253;-78
2024/01/09 00:05:30;;;;;;;8.57;4.82;;;;;;;;;;5006196;28;20179;-80
2024/01/09 00:07:56;;;;;;;8.02;4.35;;;;;;;;;;5006685;28;20584;-78
2024/01/09 00:10:22;;;;;;;7.40;4.88;;;;;;;;;;5007198;28;20168;-78
2024/01/09 00:12:48;;;;;;;8.82;6.00;;;;;;;;;;5005192;28;20187;-81
2024/01/09 00:15:14;;;;;;;10.00;5.10;;;;;;;;;;5005300;28;20214;-80
2024/01/09 00:17:42;;;;;;;8.45;4.88;;;;;;;;;;5005641;28;20408;-80
2024/01/09 00:20:08;;;;;;;7.10;4.78;;;;;;;;;;5006534;28;20242;-80
2024/01/09 00:22:34;;;;;;;11.38;5.20;;;;;;;;;;5006604;28;20203;-80
2024/01/09 00:25:00;;;;;;;8.60;4.82;;;;;;;;;;5006650;28;20179;-80
2024/01/09 00:27:26;;;;;;;9.02;5.30;;;;;;;;;;5006227;28;20171;-80
2024/01/09 00:29:52;;;;;;;8.82;4.60;;;;;;;;;;5005577;28;20171;-80
2024/01/09 00:32:18;;;;;;;8.85;5.13;;;;;;;;;;5005784;28;20654;-81
2024/01/09 00:34:44;;;;;;;9.03;5.10;;;;;;;;;;5005408;28;20171;-79
2024/01/09 00:37:10;;;;;;;9.73;4.75;;;;;;;;;;5005755;28;20403;-80
2024/01/09 00:39:36;;;;;;;9.35;6.00;;;;;;;;;;5005767;28;20211;-78
2024/01/09 00:42:02;;;;;;;10.17;5.10;;;;;;;;;;5005068;28;20175;-78
2024/01/09 00:44:27;;;;;;;8.10;5.60;;;;;;;;;;5005014;28;20486;-78
2024/01/09 00:46:53;;;;;;;9.43;5.55;;;;;;;;;;5005735;28;20176;-78
2024/01/09 00:49:19;;;;;;;9.30;5.00;;;;;;;;;;5005934;28;20175;-78
2024/01/09 00:51:46;;;;;;;8.40;4.50;;;;;;;;;;5005576;28;20403;-83
2024/01/09 00:54:12;;;;;;;10.82;5.95;;;;;;;;;;5006056;28;20442;-78
2024/01/09 00:56:38;;;;;;;8.25;5.00;;;;;;;;;;5006335;28;20171;-78
2024/01/09 00:59:04;;;;;;;10.27;5.65;;;;;;;;;;5005262;28;20255;-78
2024/01/09 01:01:30;;;;;;;8.40;5.05;;;;;;;;;;5005884;28;20168;-79
2024/01/09 01:03:55;;;;;;;12.88;5.35;;;;;;;;;;5004954;28;20227;-79
2024/01/09 01:06:21;;;;;;;6.20;4.15;;;;;;;;;;5005164;28;20171;-79
2024/01/09 01:08:47;;;;;;;7.85;4.82;;;;;;;;;;5004647;28;20644;-79
2024/01/09 01:11:13;;;;;;;7.95;4.72;;;;;;;;;;5004238;28;20172;-79
2024/01/09 01:13:39;;;;;;;11.00;6.32;;;;;;;;;;5004266;28;20175;-79
2024/01/09 01:16:05;;;;;;;7.90;5.53;;;;;;;;;;5004851;28;20172;-79
2024/01/09 01:18:32;;;;;;;8.02;5.15;;;;;;;;;;5005247;28;20210;-79
2024/01/09 01:20:58;;;;;;;11.20;5.28;;;;;;;;;;5005041;28;20195;-79
2024/01/09 01:23:24;;;;;;;8.20;5.33;;;;;;;;;;5005238;28;20218;-79
2024/01/09 01:25:50;;;;;;;9.00;5.65;;;;;;;;;;5004670;28;20429;-79
2024/01/09 01:28:16;;;;;;;9.35;5.20;;;;;;;;;;5004757;28;20267;-79
2024/01/09 01:30:42;;;;;;;8.40;4.97;;;;;;;;;;5004455;28;20203;-79
2024/01/09 01:33:08;;;;;;;9.00;5.57;;;;;;;;;;5005922;28;20175;-79
2024/01/09 01:35:33;;;;;;;8.43;4.68;;;;;;;;;;5008101;28;20173;-79
2024/01/09 01:37:59;;;;;;;9.75;5.25;;;;;;;;;;5008296;28;20210;-79
2024/01/09 01:40:25;;;;;;;9.15;4.63;;;;;;;;;;5008884;28;20172;-79
2024/01/09 01:42:51;;;;;;;10.95;5.25;;;;;;;;;;5008402;28;20726;-80
2024/01/09 01:45:22;;;;;;;9.82;5.20;;;;;;;;;;5009020;28;20243;-78
2024/01/09 01:47:48;;;;;;;9.25;5.55;;;;;;;;;;5007761;28;20458;-79
2024/01/09 01:50:15;;;;;;;8.73;5.40;;;;;;;;;;5007943;28;20172;-79
2024/01/09 01:52:44;;;;;;;8.85;5.03;;;;;;;;;;5008130;28;20183;-79
2024/01/09 01:55:10;;;;;;;7.70;5.10;;;;;;;;;;5008474;28;20222;-79
2024/01/09 01:57:37;;;;;;;9.82;5.53;;;;;;;;;;5006480;28;20220;-79
2024/01/09 02:00:03;;;;;;;7.25;4.18;;;;;;;;;;5006987;28;20172;-79
2024/01/09 02:02:29;;;;;;;8.15;5.05;;;;;;;;;;5007509;28;20187;-78
2024/01/09 02:04:56;;;;;;;9.77;5.25;;;;;;;;;;5006621;28;20227;-79
2024/01/09 02:07:24;;;;;;;8.98;5.32;;;;;;;;;;5007071;28;20178;-78
2024/01/09 02:09:53;;;;;;;9.50;5.32;;;;;;;;;;5007876;28;20172;-79
2024/01/09 02:12:20;;;;;;;10.52;5.47;;;;;;;;;;5008708;28;20172;-79
2024/01/09 02:14:46;;;;;;;8.00;5.15;;;;;;;;;;5008096;28;20176;-79
2024/01/09 02:17:13;;;;;;;8.35;6.30;;;;;;;;;;5007653;28;20164;-79
2024/01/09 02:19:39;;;;;;;6.18;4.53;;;;;;;;;;5006583;28;20170;-79
2024/01/09 02:22:05;;;;;;;9.32;5.40;;;;;;;;;;5006943;28;20186;-79
2024/01/09 02:24:31;;;;;;;9.88;6.28;;;;;;;;;;5006540;28;20690;-79
2024/01/09 02:27:05;;;;;;;8.63;5.40;;;;;;;;;;5006058;28;20180;-79
2024/01/09 02:29:33;;;;;;;10.73;5.43;;;;;;;;;;5007118;28;20174;-79
2024/01/09 02:32:00;;;;;;;11.85;6.18;;;;;;;;;;5006531;28;20209;-79
2024/01/09 02:34:26;;;;;;;12.55;6.05;;;;;;;;;;5005745;28;20203;-79
2024/01/09 02:36:52;;;;;;;6.60;4.82;;;;;;;;;;5006155;28;20199;-80
2024/01/09 02:39:18;;;;;;;7.20;4.40;;;;;;;;;;5006268;28;20181;-78
2024/01/09 02:41:46;;;;;;;9.18;5.70;;;;;;;;;;5006649;28;20182;-79
2024/01/09 02:44:12;;;;;;;7.68;4.50;;;;;;;;;;5007188;28;20250;-79
2024/01/09 02:46:38;;;;;;;10.13;5.55;;;;;;;;;;5006585;28;20173;-78
2024/01/09 02:49:04;;;;;;;9.32;5.22;;;;;;;;;;5006322;28;20186;-79
2024/01/09 02:51:30;;;;;;;8.80;5.90;;;;;;;;;;5006325;28;20187;-79
2024/01/09 02:53:56;;;;;;;9.32;6.22;;;;;;;;;;5006677;28;20497;-79
2024/01/09 02:56:22;;;;;;;7.18;5.00;;;;;;;;;;5007445;28;20180;-79
2024/01/09 02:58:48;;;;;;;10.55;5.70;;;;;;;;;;5007206;28;20225;-78
2024/01/09 03:01:14;;;;;;;11.60;5.70;;;;;;;;;;5004999;28;20262;-79
2024/01/09 03:03:40;;;;;;;11.13;6.15;;;;;;;;;;5003929;28;20237;-79
2024/01/09 03:06:06;;;;;;;9.68;5.18;;;;;;;;;;5005861;28;20179;-79
2024/01/09 03:08:32;;;;;;;9.70;6.00;;;;;;;;;;5006864;28;20171;-79
2024/01/09 03:10:58;;;;;;;9.07;5.43;;;;;;;;;;5007214;28;20639;-79
2024/01/09 03:13:24;;;;;;;13.07;6.70;;;;;;;;;;5006283;28;20207;-78
2024/01/09 03:15:50;;;;;;;14.45;6.70;;;;;;;;;;5006182;28;20449;-78
2024/01/09 03:18:16;;;;;;;10.83;6.30;;;;;;;;;;5006325;28;20175;-79
2024/01/09 03:20:42;;;;;;;10.98;6.30;;;;;;;;;;5007684;28;20425;-79
2024/01/09 03:23:07;;;;;;;9.38;5.72;;;;;;;;;;5005420;28;20199;-79
2024/01/09 03:25:33;;;;;;;8.03;4.40;;;;;;;;;;5005344;28;20183;-79
2024/01/09 03:27:59;;;;;;;7.35;5.18;;;;;;;;;;5005395;28;20437;-79
2024/01/09 03:30:29;;;;;;;9.10;5.30;;;;;;;;;;5006424;28;20170;-79
2024/01/09 03:32:55;;;;;;;8.20;5.22;;;;;;;;;;5006353;28;20315;-82
2024/01/09 03:35:21;;;;;;;9.90;5.45;;;;;;;;;;5006437;28;20186;-79
2024/01/09 03:37:47;;;;;;;8.20;5.13;;;;;;;;;;5006552;28;20180;-79
2024/01/09 03:40:13;;;;;;;8.68;5.57;;;;;;;;;;5006051;28;20895;-79
2024/01/09 03:42:39;;;;;;;6.20;4.65;;;;;;;;;;5006253;28;20203;-79
2024/01/09 03:45:06;;;;;;;11.23;5.72;;;;;;;;;;5006247;28;20197;-78
2024/01/09 03:47:32;;;;;;;7.10;4.15;;;;;;;;;;5004591;28;20175;-79
2024/01/09 03:49:58;;;;;;;7.90;5.70;;;;;;;;;;5005896;28;20172;-80
2024/01/09 03:52:24;;;;;;;9.02;5.93;;;;;;;;;;5006208;28;20407;-79
2024/01/09 03:54:50;;;;;;;13.30;5.60;;;;;;;;;;5004671;28;20171;-78
2024/01/09 03:57:16;;;;;;;11.50;5.53;;;;;;;;;;5005836;28;20168;-79
2024/01/09 03:59:42;;;;;;;10.73;5.55;;;;;;;;;;5007284;28;20176;-78
2024/01/09 04:02:08;;;;;;;9.82;5.40;;;;;;;;;;5006014;28;20514;-79
2024/01/09 04:04:34;;;;;;;11.38;5.20;;;;;;;;;;5006303;28;20249;-79
2024/01/09 04:07:00;;;;;;;7.28;5.10;;;;;;;;;;5005722;28;20171;-79
2024/01/09 04:09:26;;;;;;;11.27;5.72;;;;;;;;;;5005384;28;20170;-79
2024/01/09 04:11:53;;;;;;;10.25;5.15;;;;;;;;;;5001752;28;20627;-78
2024/01/09 04:14:19;;;;;;;10.93;7.32;;;;;;;;;;5005038;28;20233;-79
2024/01/09 04:16:48;;;;;;;8.02;5.10;;;;;;;;;;5005142;28;20171;-79
2024/01/09 04:19:14;;;;;;;10.13;5.65;;;;;;;;;;5004951;28;20229;-79
2024/01/09 04:21:40;;;;;;;9.52;6.38;;;;;;;;;;5005347;28;20659;-79
2024/01/09 04:24:06;;;;;;;12.98;6.20;;;;;;;;;;5005720;28;20262;-79
2024/01/09 04:26:32;;;;;;;10.38;5.68;;;;;;;;;;5006241;28;20189;-78
2024/01/09 04:28:58;;;;;;;11.93;5.60;;;;;;;;;;5005671;28;20187;-84
2024/01/09 04:31:24;;;;;;;10.50;5.53;;;;;;;;;;5005198;28;20441;-78
2024/01/09 04:33:50;;;;;;;9.27;6.18;;;;;;;;;;5005175;28;20193;-78
2024/01/09 04:36:17;;;;;;;9.35;5.75;;;;;;;;;;5005425;28;20267;-79
2024/01/09 04:38:43;;;;;;;13.77;6.50;;;;;;;;;;5004575;28;20174;-79
2024/01/09 04:41:14;;;;;;;10.98;6.03;;;;;;;;;;5005601;28;20174;-79
2024/01/09 04:43:40;;;;;;;9.52;5.63;;;;;;;;;;5005616;28;20203;-79
2024/01/09 04:46:06;;;;;;;8.65;5.47;;;;;;;;;;5005133;28;20174;-79
2024/01/09 04:48:32;;;;;;;13.32;6.75;;;;;;;;;;5005850;28;20175;-79
2024/01/09 04:50:58;;;;;;;7.70;4.68;;;;;;;;;;5006127;28;20574;-79
2024/01/09 04:53:24;;;;;;;13.32;6.32;;;;;;;;;;5006279;28;20187;-79
2024/01/09 04:55:50;;;;;;;9.75;5.18;;;;;;;;;;5006036;28;20183;-78
2024/01/09 04:58:16;;;;;;;10.43;5.85;;;;;;;;;;5006533;28;20187;-79
2024/01/09 05:00:42;;;;;;;10.27;5.70;;;;;;;;;;5006249;28;20210;-78
2024/01/09 05:03:07;;;;;;;9.77;5.57;;;;;;;;;;5003158;28;20242;-79
2024/01/09 05:05:33;;;;;;;10.20;6.18;;;;;;;;;;5005740;28;20231;-79
2024/01/09 05:07:59;;;;;;;10.15;5.28;;;;;;;;;;5005601;28;20189;-78
2024/01/09 05:10:25;;;;;;;8.80;5.90;;;;;;;;;;5009068;28;20171;-79
2024/01/09 05:12:51;;;;;;;7.43;5.03;;;;;;;;;;5008276;28;20631;-78
2024/01/09 05:15:17;;;;;;;10.30;5.05;;;;;;;;;;5007405;28;20232;-79
2024/01/09 05:17:43;;;;;;;9.45;5.28;;;;;;;;;;5008661;28;20570;-79
2024/01/09 05:20:10;;;;;;;8.45;5.20;;;;;;;;;;5008093;28;20175;-79
2024/01/09 05:22:36;;;;;;;10.55;5.15;;;;;;;;;;5009259;28;20183;-79
2024/01/09 05:25:03;;;;;;;9.55;5.35;;;;;;;;;;5008964;28;20187;-84
2024/01/09 05:27:29;;;;;;;11.45;6.13;;;;;;;;;;5007298;28;20230;-79
2024/01/09 05:29:55;;;;;;;8.90;5.88;;;;;;;;;;5008117;28;20190;-79
2024/01/09 05:32:21;;;;;;;7.03;4.70;;;;;;;;;;5008990;28;20176;-79
2024/01/09 05:34:47;;;;;;;13.45;6.30;;;;;;;;;;5008819;28;20631;-78
2024/01/09 05:37:13;;;;;;;9.10;5.45;;;;;;;;;;5008503;28;20260;-79
2024/01/09 05:39:39;;;;;;;6.90;4.72;;;;;;;;;;5008513;28;20176;-79
2024/01/09 05:42:05;;;;;;;8.70;5.50;;;;;;;;;;5007608;28;20510;-79
2024/01/09 05:44:31;;;;;;;9.18;5.30;;;;;;;;;;5008310;28;20555;-79
2024/01/09 05:46:57;;;;;;;12.25;5.38;;;;;;;;;;5007664;28;20258;-79
2024/01/09 05:49:23;;;;;;;14.10;6.80;;;;;;;;;;5008840;28;20183;-79
2024/01/09 05:51:49;;;;;;;11.27;6.47;;;;;;;;;;5008888;28;20562;-79
2024/01/09 05:54:15;;;;;;;8.25;5.45;;;;;;;;;;5008290;28;20194;-79
2024/01/09 05:56:41;;;;;;;9.97;5.63;;;;;;;;;;5008480;28;20574;-79
2024/01/09 05:59:07;;;;;;;10.77;5.05;;;;;;;;;;5008252;28;20508;-80
2024/01/09 06:01:33;;;;;;;13.30;7.38;;;;;;;;;;5008315;28;20239;-78
2024/01/09 06:03:59;;;;;;;11.13;6.65;;;;;;;;;;5007663;28;20683;-78
2024/01/09 06:06:25;;;;;;;12.13;6.07;;;;;;;;;;5007828;28;20198;-79
2024/01/09 06:08:51;;;;;;;15.35;7.03;;;;;;;;;;5008271;28;20172;-79
2024/01/09 06:11:17;;;;;;;13.68;5.38;;;;;;;;;;5007766;28;20213;-78
2024/01/09 06:13:43;;;;;;;6.00;4.45;;;;;;;;;;5006805;28;20587;-79
2024/01/09 06:16:09;;;;;;;9.10;5.28;;;;;;;;;;5006724;28;20189;-79
2024/01/09 06:18:35;;;;;;;8.05;4.93;;;;;;;;;;5007022;28;20177;-78
2024/01/09 06:21:01;;;;;;;14.02;5.63;;;;;;;;;;5007156;28;20221;-79
2024/01/09 06:23:27;;;;;;;10.57;6.43;;;;;;;;;;5007530;28;20214;-79
2024/01/09 06:25:53;;;;;;;5.72;4.43;;;;;;;;;;5006451;28;20420;-79
2024/01/09 06:28:19;;;;;;;11.15;5.68;;;;;;;;;;5006816;28;20184;-79
2024/01/09 06:30:45;;;;;;;7.68;5.00;;;;;;;;;;5006759;28;20185;-80
2024/01/09 06:33:11;;;;;;;8.32;5.00;;;;;;;;;;5006534;28;20183;-79
2024/01/09 06:35:37;;;;;;;10.90;6.63;;;;;;;;;;5006641;28;20177;-79
2024/01/09 06:38:03;;;;;;;9.50;5.75;;;;;;;;;;5006265;28;20207;-79
2024/01/09 06:40:29;;;;;;;9.80;5.65;;;;;;;;;;5006739;28;20176;-78
2024/01/09 06:42:55;;;;;;;8.07;4.72;;;;;;;;;;5006620;28;20215;-79
2024/01/09 06:45:21;;;;;;;6.53;4.13;;;;;;;;;;5006721;28;20212;-79
2024/01/09 06:47:47;;;;;;;7.15;4.15;;;;;;;;;;5006374;28;20187;-79
2024/01/09 06:50:13;;;;;;;8.55;5.63;;;;;;;;;;5007051;28;20183;-79
2024/01/09 06:52:39;;;;;;;8.82;5.82;;;;;;;;;;5006165;28;20173;-78
2024/01/09 06:55:05;;;;;;;9.80;5.53;;;;;;;;;;5006241;28;20182;-79
2024/01/09 06:57:31;;;;;;;10.95;5.30;;;;;;;;;;5006035;28;20180;-79
2024/01/09 06:59:57;;;;;;;9.90;5.63;;;;;;;;;;5006066;28;20214;-79
2024/01/09 07:02:23;;;;;;;10.38;5.30;;;;;;;;;;5006069;28;20179;-79
2024/01/09 07:04:49;;;;;;;8.73;5.35;;;;;;;;;;5006025;28;20690;-79
2024/01/09 07:07:15;;;;;;;10.63;5.55;;;;;;;;;;5004853;28;20213;-79
2024/01/09 07:09:41;;;;;;;9.93;5.05;;;;;;;;;;5005624;28;20643;-79
2024/01/09 07:12:09;;;;;;;13.13;5.45;;;;;;;;;;5005809;28;20179;-79
2024/01/09 07:14:36;;;;;;;10.73;5.38;;;;;;;;;;5005587;28;20182;-79
2024/01/09 07:17:03;;;;;;;8.95;4.82;;;;;;;;;;5005825;28;20544;-79
2024/01/09 07:19:29;;;;;;;10.57;5.93;;;;;;;;;;5005671;28;20180;-79
2024/01/09 07:21:55;;;;;;;10.85;6.40;;;;;;;;;;5004945;28;20330;-78
2024/01/09 07:24:21;;;;;;;12.35;6.30;;;;;;;;;;5006758;28;20208;-79
2024/01/09 07:26:47;;;;;;;8.97;5.60;;;;;;;;;;5005879;28;20234;-79
2024/01/09 07:29:16;;;;;;;8.90;5.28;;;;;;;;;;5005141;28;20413;-79
2024/01/09 07:31:43;;;;;;;12.13;5.38;;;;;;;;;;5004478;28;20554;-79
2024/01/09 07:34:09;;;;;;;7.88;5.38;;;;;;;;;;5004481;28;20187;-79
2024/01/09 07:36:35;;;;;;;9.98;4.90;;;;;;;;;;5004099;28;20696;-79
2024/01/09 07:39:01;;;;;;;9.10;5.40;;;;;;;;;;5003857;28;20640;-79
2024/01/09 07:41:27;;;;;;;13.15;6.95;;;;;;;;;;5001274;28;20320;-79
2024/01/09 07:43:53;;;;;;;9.93;5.93;;;;;;;;;;5001366;28;20679;-79
2024/01/09 07:46:19;;;;;;;12.45;5.97;;;;;;;;;;5001564;28;20899;-78
2024/01/09 07:48:45;;;;;;;9.30;4.68;;;;;;;;;;5001799;28;20179;-79
2024/01/09 07:51:11;;;;;;;14.38;6.22;;;;;;;;;;5001854;28;20697;-80
2024/01/09 07:53:37;;;;;;;8.63;4.35;;;;;;;;;;5004569;28;20187;-79
2024/01/09 07:56:03;;;;;;;10.23;5.80;;;;;;;;;;5004632;28;20205;-79
2024/01/09 07:58:29;;;;;;;11.85;5.80;;;;;;;;;;5003558;28;20417;-79
2024/01/09 08:00:55;;;;;;;11.18;6.60;;;;;;;;;;5004391;28;20201;-79
2024/01/09 08:03:21;;;;;;;7.65;4.90;;;;;;;;;;5004545;28;20652;-79
2024/01/09 08:05:47;;;;;;;8.43;5.40;;;;;;;;;;5004844;28;20238;-79
2024/01/09 08:08:13;;;;;;;9.00;4.90;;;;;;;;;;5005352;28;20407;-81
2024/01/09 08:10:39;;;;;;;8.40;5.53;;;;;;;;;;5005804;28;20417;-80
2024/01/09 08:13:05;;;;;;;10.88;5.30;;;;;;;;;;5005178;28;20418;-79
2024/01/09 08:15:31;;;;;;;10.15;5.13;;;;;;;;;;5004659;28;20180;-79
2024/01/09 08:17:57;;;;;;;15.30;7.37;;;;;;;;;;5005588;28;20189;-79
2024/01/09 08:20:23;;;;;;;10.18;5.32;;;;;;;;;;5004717;28;20430;-80
2024/01/09 08:22:49;;;;;;;9.30;5.60;;;;;;;;;;5006099;28;20210;-79
2024/01/09 08:25:15;;;;;;;11.15;7.68;;;;;;;;;;5005323;28;20926;-80
2024/01/09 08:27:41;;;;;;;11.52;6.35;;;;;;;;;;5005031;28;20210;-79
2024/01/09 08:30:10;;;;;;;9.27;5.50;;;;;;;;;;5005943;28;20566;-79
2024/01/09 08:32:37;;;;;;;8.43;6.55;;;;;;;;;;5004738;28;20197;-80
2024/01/09 08:35:03;;;;;;;11.88;6.28;;;;;;;;;;5005114;28;20298;-79
2024/01/09 08:37:29;;;;;;;10.15;5.43;;;;;;;;;;5004708;28;20183;-79
2024/01/09 08:39:55;;;;;;;10.57;5.93;;;;;;;;;;5005123;28;20512;-79
2024/01/09 08:42:21;;;;;;;11.75;5.80;;;;;;;;;;5002486;28;20430;-80
2024/01/09 08:44:47;;;;;;;12.13;6.22;;;;;;;;;;5004059;28;20226;-79
2024/01/09 08:47:13;;;;;;;9.15;5.97;;;;;;;;;;5005492;28;20171;-79
2024/01/09 08:49:39;;;;;;;7.47;5.65;;;;;;;;;;5005290;28;20266;-79
2024/01/09 08:52:05;;;;;;;12.18;6.10;;;;;;;;;;5005145;28;20202;-80
2024/01/09 08:54:31;;;;;;;15.13;7.82;;;;;;;;;;5005393;28;20186;-79
2024/01/09 08:56:57;;;;;;;9.73;6.60;;;;;;;;;;5004879;28;20183;-79
2024/01/09 08:59:23;;;;;;;9.40;5.22;;;;;;;;;;5006083;28;20200;-80
2024/01/09 09:01:49;;;;;;;9.55;5.63;;;;;;;;;;5006789;28;20180;-79
2024/01/09 09:04:15;;;;;;;12.45;7.13;;;;;;;;;;5005946;28;20623;-83
2024/01/09 09:06:41;;;;;;;11.35;5.40;;;;;;;;;;5005959;28;20176;-79
2024/01/09 09:09:09;;;;;;;11.20;6.10;;;;;;;;;;5004601;28;20184;-79
2024/01/09 09:11:35;;;;;;;19.83;9.48;;;;;;;;;;5005817;28;20585;-79
2024/01/09 09:14:00;;;;;;;12.25;6.20;;;;;;;;;;5007062;28;20187;-79
2024/01/09 09:16:29;;;;;;;9.35;4.93;;;;;;;;;;5007016;28;20184;-79
2024/01/09 09:18:55;;;;;;;8.65;5.32;;;;;;;;;;5006417;28;20274;-79
2024/01/09 09:21:21;;;;;;;14.50;6.90;;;;;;;;;;5006871;28;20236;-79
2024/01/09 09:23:47;;;;;;;12.73;7.03;;;;;;;;;;5005699;28;20227;-79
2024/01/09 09:26:13;;;;;;;10.52;6.80;;;;;;;;;;5005718;28;20643;-79
2024/01/09 09:28:42;;;;;;;12.35;6.28;;;;;;;;;;5006122;28;20183;-79
2024/01/09 09:31:09;;;;;;;10.30;5.65;;;;;;;;;;5007223;28;20168;-79
2024/01/09 09:33:35;;;;;;;10.68;6.65;;;;;;;;;;5006406;28;20183;-79
2024/01/09 09:36:07;;;;;;;7.90;4.97;;;;;;;;;;5005675;28;20672;-79
2024/01/09 09:38:34;;;;;;;9.15;6.03;;;;;;;;;;5005612;28;20607;-79
2024/01/09 09:41:09;;;;;;;12.77;5.45;;;;;;;;;;5006364;28;20183;-79
2024/01/09 09:43:35;;;;;;;11.65;7.00;;;;;;;;;;5004303;28;20222;-80
2024/01/09 09:46:03;;;;;;;11.23;5.45;;;;;;;;;;5005227;28;20168;-79
2024/01/09 09:48:30;;;;;;;10.30;4.97;;;;;;;;;;5004752;28;20230;-79
2024/01/09 09:50:56;;;;;;;12.07;6.03;;;;;;;;;;5006317;28;20207;-79
2024/01/09 09:53:24;;;;;;;10.43;7.18;;;;;;;;;;5004570;28;20218;-79
2024/01/09 09:55:51;;;;;;;11.85;5.00;;;;;;;;;;5008523;28;20171;-79
2024/01/09 09:58:20;;;;;;;6.43;4.75;;;;;;;;;;5007592;28;20172;-79
2024/01/09 10:00:46;;;;;;;9.93;5.55;;;;;;;;;;5008237;28;20172;-80
2024/01/09 10:03:14;;;;;;;9.18;5.22;;;;;;;;;;5007214;28;20309;-80
2024/01/09 10:05:41;;;;;;;9.48;5.20;;;;;;;;;;5009838;28;20243;-80
2024/01/09 10:08:08;;;;;;;7.55;4.80;;;;;;;;;;5009332;28;20175;-80
2024/01/09 10:10:34;;;;;;;9.25;5.00;;;;;;;;;;5009631;28;20182;-80
2024/01/09 10:13:00;;;;;;;10.80;5.00;;;;;;;;;;5010162;28;20643;-80
2024/01/09 10:15:26;;;;;;;9.20;5.32;;;;;;;;;;5009784;28;20185;-81
2024/01/09 10:17:52;;;;;;;10.73;5.45;;;;;;;;;;5010009;28;20210;-80
2024/01/09 10:20:18;;;;;;;8.48;5.35;;;;;;;;;;5009828;28;20179;-80
2024/01/09 10:22:45;;;;;;;7.05;4.50;;;;;;;;;;5009909;28;20230;-80
2024/01/09 10:25:12;;;;;;;8.30;3.80;;;;;;;;;;5010299;28;20179;-80
2024/01/09 10:27:38;;;;;;;8.10;5.22;;;;;;;;;;5010329;28;20167;-80
2024/01/09 10:30:05;;;;;;;6.43;4.55;;;;;;;;;;5009901;28;20199;-77
2024/01/09 10:32:33;;;;;;;15.63;5.90;;;;;;;;;;5010576;28;20257;-77
2024/01/09 10:34:59;;;;;;;6.85;4.80;;;;;;;;;;5010323;28;20168;-77
2024/01/09 10:37:25;;;;;;;6.82;4.45;;;;;;;;;;5009714;28;20186;-78
2024/01/09 10:39:52;;;;;;;7.82;3.95;;;;;;;;;;5008503;28;20184;-77
2024/01/09 10:42:18;;;;;;;6.07;4.40;;;;;;;;;;5010219;28;20180;-77
2024/01/09 10:44:47;;;;;;;5.70;3.65;;;;;;;;;;5006663;28;20211;-78
2024/01/09 10:47:14;;;;;;;6.43;4.78;;;;;;;;;;5006866;28;20190;-79
2024/01/09 10:49:41;;;;;;;9.23;4.20;;;;;;;;;;5005680;28;20225;-80
2024/01/09 10:52:14;;;;;;;5.93;4.15;;;;;;;;;;5006591;28;20177;-79
2024/01/09 10:54:41;;;;;;;5.50;3.80;;;;;;;;;;5004988;28;20186;-80
2024/01/09 10:57:10;;;;;;;5.43;3.70;;;;;;;;;;5004525;28;20186;-80
2024/01/09 10:59:38;;;;;;;5.50;4.45;;;;;;;;;;5003234;28;20167;-80
2024/01/09 11:02:04;;;;;;;13.85;4.82;;;;;;;;;;5003984;28;20199;-80
2024/01/09 11:04:30;;;;;;;5.85;5.00;;;;;;;;;;5003658;28;20235;-81
2024/01/09 11:06:56;;;;;;;7.43;4.33;;;;;;;;;;5002400;28;20178;-80
2024/01/09 11:09:23;;;;;;;7.30;4.50;;;;;;;;;;5003566;28;20430;-84
2024/01/09 11:11:49;;;;;;;6.90;4.45;;;;;;;;;;5003697;28;20176;-80
2024/01/09 11:14:16;;;;;;;6.05;4.35;;;;;;;;;;5002998;28;20180;-80
2024/01/09 11:16:44;;;;;;;9.02;4.70;;;;;;;;;;5003464;28;20179;-80
2024/01/09 11:19:11;;;;;;;7.55;4.35;;;;;;;;;;5003861;28;20186;-80
2024/01/09 11:21:37;;;;;;;11.43;4.93;;;;;;;;;;5003186;28;20176;-80
2024/01/09 11:24:04;;;;;;;6.03;4.53;;;;;;;;;;5003827;28;20618;-79
2024/01/09 11:26:34;;;;;;;7.03;4.30;;;;;;;;;;5003584;28;20949;-80
2024/01/09 11:29:00;;;;;;;6.55;4.55;;;;;;;;;;5003494;28;20243;-80
2024/01/09 11:31:27;;;;;;;6.28;4.25;;;;;;;;;;5001844;28;20210;-80
2024/01/09 11:33:55;;;;;;;7.38;4.50;;;;;;;;;;5002239;28;20210;-79
2024/01/09 11:36:23;;;;;;;5.43;3.97;;;;;;;;;;5000877;28;20211;-79
2024/01/09 11:38:51;;;;;;;7.45;5.05;;;;;;;;;;5002655;28;20180;-80
2024/01/09 11:41:17;;;;;;;5.93;4.00;;;;;;;;;;5002785;28;20243;-80
2024/01/09 11:43:58;;;;;;;5.70;3.90;;;;;;;;;;5000853;28;20239;-80
2024/01/09 11:46:26;;;;;;;5.55;3.55;;;;;;;;;;5002442;28;20182;-83
2024/01/09 11:48:52;;;;;;;5.45;4.20;;;;;;;;;;5001422;28;20176;-79
2024/01/09 11:51:19;;;;;;;4.80;3.73;;;;;;;;;;5001870;28;20194;-79
2024/01/09 11:53:45;;;;;;;9.35;5.97;;;;;;;;;;5002329;28;20419;-76
2024/01/09 11:56:13;;;;;;;8.20;6.03;;;;;;;;;;5004425;28;20239;-76
2024/01/09 11:58:39;;;;;;;6.15;3.92;;;;;;;;;;5003471;28;20640;-76
2024/01/09 12:01:06;;;;;;;11.52;6.82;;;;;;;;;;5002726;28;20265;-79
2024/01/09 12:03:36;;;;;;;7.72;5.20;;;;;;;;;;5002037;28;20570;-79
2024/01/09 12:06:04;;;;;;;5.72;3.58;;;;;;;;;;5001849;28;20178;-79
2024/01/09 12:08:30;;;;;;;8.52;4.93;;;;;;;;;;5002190;28;20183;-80
2024/01/09 12:10:57;;;;;;;6.85;4.38;;;;;;;;;;5001755;28;20178;-79
2024/01/09 12:13:22;;;;;;;9.70;4.45;;;;;;;;;;4999995;28;20243;-79
2024/01/09 12:15:48;;;;;;;6.83;4.13;;;;;;;;;;5002096;28;20683;-79
2024/01/09 12:18:14;;;;;;;5.90;4.33;;;;;;;;;;5001748;28;20411;-79
2024/01/09 12:20:41;;;;;;;8.07;5.10;;;;;;;;;;5001311;28;20442;-79
2024/01/09 12:23:07;;;;;;;5.63;4.47;;;;;;;;;;5000196;28;20458;-79
2024/01/09 12:25:34;;;;;;;8.50;5.07;;;;;;;;;;5001460;28;20241;-79
2024/01/09 12:28:01;;;;;;;7.82;4.88;;;;;;;;;;5002493;28;20692;-76
2024/01/09 12:30:27;;;;;;;7.13;4.30;;;;;;;;;;5002879;28;20175;-79
2024/01/09 12:32:54;;;;;;;7.72;4.10;;;;;;;;;;5002843;28;20270;-76
2024/01/09 12:35:20;;;;;;;4.55;4.07;;;;;;;;;;5001897;28;20191;-79
2024/01/09 12:37:46;;;;;;;7.53;4.47;;;;;;;;;;4999916;28;20179;-79
2024/01/09 12:40:19;;;;;;;5.80;4.50;;;;;;;;;;5001145;28;20215;-79
2024/01/09 12:42:45;;;;;;;6.10;4.22;;;;;;;;;;5000696;28;20183;-80
2024/01/09 12:45:12;;;;;;;7.45;4.20;;;;;;;;;;5000727;28;20254;-80
2024/01/09 12:47:38;;;;;;;5.18;3.70;;;;;;;;;;5000151;28;20176;-80
2024/01/09 12:50:04;;;;;;;5.73;4.20;;;;;;;;;;4999959;28;20175;-80
2024/01/09 12:52:37;;;;;;;8.00;4.47;;;;;;;;;;4987110;28;20837;-77
2024/01/09 12:55:06;;;;;;;4.70;3.50;;;;;;;;;;4997602;28;20207;-80
2024/01/09 12:57:32;;;;;;;12.10;4.72;;;;;;;;;;5000346;28;20234;-81
2024/01/09 12:59:58;;;;;;;9.00;5.10;;;;;;;;;;4999775;28;20182;-80
2024/01/09 13:02:24;;;;;;;7.60;5.23;;;;;;;;;;4999903;28;20497;-80
2024/01/09 13:04:50;;;;;;;9.13;4.83;;;;;;;;;;4999186;28;20517;-80
2024/01/09 13:07:18;;;;;;;6.85;4.90;;;;;;;;;;4998831;28;20430;-80
2024/01/09 13:09:44;;;;;;;6.53;4.70;;;;;;;;;;4999748;28;20191;-80
2024/01/09 13:12:10;;;;;;;5.60;4.45;;;;;;;;;;5000261;28;20176;-80
2024/01/09 13:14:37;;;;;;;5.88;4.35;;;;;;;;;;5000045;28;20187;-80
2024/01/09 13:17:03;;;;;;;10.02;4.03;;;;;;;;;;4999891;28;20198;-80
2024/01/09 13:19:30;;;;;;;9.18;4.55;;;;;;;;;;5000177;28;20186;-80
2024/01/09 13:21:56;;;;;;;7.20;4.45;;;;;;;;;;5000508;28;20187;-80
2024/01/09 13:24:22;;;;;;;5.47;4.00;;;;;;;;;;5000194;28;20250;-80
2024/01/09 13:26:48;;;;;;;6.57;4.17;;;;;;;;;;4999183;28;20442;-80
2024/01/09 13:29:14;;;;;;;12.05;4.22;;;;;;;;;;5001182;28;20406;-80
2024/01/09 13:31:40;;;;;;;6.47;4.22;;;;;;;;;;5004076;28;20198;-80
2024/01/09 13:34:06;;;;;;;8.85;4.35;;;;;;;;;;5003592;28;20219;-80
2024/01/09 13:36:32;;;;;;;9.10;4.27;;;;;;;;;;5003143;28;20199;-81
2024/01/09 13:38:58;;;;;;;6.93;4.20;;;;;;;;;;5004160;28;20407;-80
2024/01/09 13:41:25;;;;;;;9.52;5.18;;;;;;;;;;5003223;28;20482;-83
2024/01/09 13:43:51;;;;;;;8.88;4.40;;;;;;;;;;5001373;28;20218;-80
2024/01/09 13:46:17;;;;;;;6.70;4.40;;;;;;;;;;5002831;28;20660;-78
2024/01/09 13:48:46;;;;;;;6.20;4.32;;;;;;;;;;5002535;28;20453;-78
2024/01/09 13:51:13;;;;;;;8.45;5.07;;;;;;;;;;5003454;28;20178;-78
2024/01/09 13:53:39;;;;;;;6.78;4.68;;;;;;;;;;5003212;28;20233;-78
2024/01/09 13:56:05;;;;;;;6.83;4.13;;;;;;;;;;5003361;28;20658;-78
2024/01/09 13:58:31;;;;;;;6.25;4.93;;;;;;;;;;5003227;28;20481;-78
2024/01/09 14:00:57;;;;;;;9.52;4.95;;;;;;;;;;5002804;28;20184;-79
2024/01/09 14:03:25;;;;;;;6.97;4.30;;;;;;;;;;5002558;28;20270;-78
2024/01/09 14:05:52;;;;;;;7.93;5.05;;;;;;;;;;5002694;28;20198;-78
2024/01/09 14:08:18;;;;;;;7.20;4.80;;;;;;;;;;5003001;28;20235;-78
2024/01/09 14:10:44;;;;;;;5.53;4.10;;;;;;;;;;5002623;28;20191;-80
2024/01/09 14:13:11;;;;;;;7.40;4.63;;;;;;;;;;5000631;28;20447;-80
2024/01/09 14:15:37;;;;;;;5.40;4.25;;;;;;;;;;5002360;28;20476;-79
2024/01/09 14:18:04;;;;;;;8.43;4.57;;;;;;;;;;5002342;28;20656;-80
2024/01/09 14:20:31;;;;;;;6.57;4.03;;;;;;;;;;5006226;28;20278;-79
2024/01/09 14:22:56;;;;;;;9.48;4.50;;;;;;;;;;5007920;28;20179;-80
2024/01/09 14:25:22;;;;;;;6.03;3.60;;;;;;;;;;5002195;28;20274;-79
2024/01/09 14:27:48;;;;;;;8.50;4.07;;;;;;;;;;5001490;28;20477;-79
2024/01/09 14:30:18;;;;;;;9.40;5.03;;;;;;;;;;5002813;28;20442;-79
2024/01/09 14:32:47;;;;;;;6.55;4.75;;;;;;;;;;5002254;28;20434;-80